sensor_id;sensor_type;location;lat;lon;timestamp;P1;durP1;ratioP1;P2;durP2;ratioP2
6825;SDS011;3451;52.476;13.316;2022-09-24T00:03:39;9.97;;;7.20;;
6825;SDS011;3451;52.476;13.316;2022-09-24T00:06:06;9.40;;;6.57;;
6825;SDS011;3451;52.476;13.316;2022-09-24T00:08:34;9.63;;;6.53;;
6825;SDS011;3451;52.476;13.316;2022-09-24T00:11:01;10.83;;;7.10;;
6825;SDS011;3451;52.476;13.316;2022-09-24T00:13:28;8.27;;;6.90;;
6825;SDS011;3451;52.476;13.316;2022-09-24T00:15:54;9.57;;;6.83;;
6825;SDS011;3451;52.476;13.316;2022-09-24T00:18:20;8.53;;;6.57;;
6825;SDS011;3451;52.476;13.316;2022-09-24T00:20:47;8.33;;;6.90;;
6825;SDS011;3451;52.476;13.316;2022-09-24T00:23:13;10.33;;;6.97;;
6825;SDS011;3451;52.476;13.316;2022-09-24T00:25:40;11.07;;;7.60;;
6825;SDS011;3451;52.476;13.316;2022-09-24T00:28:26;11.13;;;6.90;;
6825;SDS011;3451;52.476;13.316;2022-09-24T00:30:52;8.83;;;6.67;;
6825;SDS011;3451;52.476;13.316;2022-09-24T00:33:18;9.73;;;7.10;;
6825;SDS011;3451;52.476;13.316;2022-09-24T00:35:46;8.43;;;6.83;;
6825;SDS011;3451;52.476;13.316;2022-09-24T00:38:12;8.13;;;6.67;;
6825;SDS011;3451;52.476;13.316;2022-09-24T00:40:38;8.10;;;6.87;;
6825;SDS011;3451;52.476;13.316;2022-09-24T00:43:20;9.17;;;7.13;;
6825;SDS011;3451;52.476;13.316;2022-09-24T00:45:47;11.77;;;7.10;;
6825;SDS011;3451;52.476;13.316;2022-09-24T00:48:13;9.00;;;7.00;;
6825;SDS011;3451;52.476;13.316;2022-09-24T00:50:40;9.43;;;7.00;;
6825;SDS011;3451;52.476;13.316;2022-09-24T00:53:08;8.70;;;6.90;;
6825;SDS011;3451;52.476;13.316;2022-09-24T00:55:36;10.17;;;7.43;;
6825;SDS011;3451;52.476;13.316;2022-09-24T00:58:05;9.17;;;7.10;;
6825;SDS011;3451;52.476;13.316;2022-09-24T01:00:32;10.40;;;7.20;;
6825;SDS011;3451;52.476;13.316;2022-09-24T01:03:00;8.20;;;7.13;;
6825;SDS011;3451;52.476;13.316;2022-09-24T01:05:27;11.30;;;7.20;;
6825;SDS011;3451;52.476;13.316;2022-09-24T01:07:53;8.33;;;6.70;;
6825;SDS011;3451;52.476;13.316;2022-09-24T01:10:22;9.43;;;7.27;;
6825;SDS011;3451;52.476;13.316;2022-09-24T01:13:12;8.87;;;6.93;;
6825;SDS011;3451;52.476;13.316;2022-09-24T01:15:44;10.10;;;7.40;;
6825;SDS011;3451;52.476;13.316;2022-09-24T01:18:23;13.10;;;7.73;;
6825;SDS011;3451;52.476;13.316;2022-09-24T01:23:39;9.93;;;7.63;;
6825;SDS011;3451;52.476;13.316;2022-09-24T01:31:38;8.57;;;6.97;;
6825;SDS011;3451;52.476;13.316;2022-09-24T01:34:06;9.27;;;7.40;;
6825;SDS011;3451;52.476;13.316;2022-09-24T01:36:34;10.07;;;7.10;;
6825;SDS011;3451;52.476;13.316;2022-09-24T01:39:00;11.10;;;8.00;;
6825;SDS011;3451;52.476;13.316;2022-09-24T01:41:28;10.97;;;8.13;;
6825;SDS011;3451;52.476;13.316;2022-09-24T01:43:56;11.50;;;7.60;;
6825;SDS011;3451;52.476;13.316;2022-09-24T01:46:23;9.77;;;7.63;;
6825;SDS011;3451;52.476;13.316;2022-09-24T01:48:50;10.60;;;7.13;;
6825;SDS011;3451;52.476;13.316;2022-09-24T01:54:06;10.03;;;7.30;;
6825;SDS011;3451;52.476;13.316;2022-09-24T01:56:37;8.83;;;7.57;;
6825;SDS011;3451;52.476;13.316;2022-09-24T01:59:07;9.30;;;7.60;;
6825;SDS011;3451;52.476;13.316;2022-09-24T02:01:57;9.93;;;7.80;;
6825;SDS011;3451;52.476;13.316;2022-09-24T02:04:26;10.13;;;8.20;;
6825;SDS011;3451;52.476;13.316;2022-09-24T02:07:00;8.40;;;7.30;;
6825;SDS011;3451;52.476;13.316;2022-09-24T02:09:35;10.00;;;7.87;;
6825;SDS011;3451;52.476;13.316;2022-09-24T02:12:04;9.07;;;7.83;;
6825;SDS011;3451;52.476;13.316;2022-09-24T02:14:33;9.13;;;7.30;;
6825;SDS011;3451;52.476;13.316;2022-09-24T02:16:59;8.37;;;7.07;;
6825;SDS011;3451;52.476;13.316;2022-09-24T02:19:28;12.13;;;7.23;;
6825;SDS011;3451;52.476;13.316;2022-09-24T02:21:55;8.97;;;7.30;;
6825;SDS011;3451;52.476;13.316;2022-09-24T02:25:05;8.47;;;7.13;;
6825;SDS011;3451;52.476;13.316;2022-09-24T02:27:12;9.63;;;7.57;;
6825;SDS011;3451;52.476;13.316;2022-09-24T02:29:39;11.43;;;8.10;;
6825;SDS011;3451;52.476;13.316;2022-09-24T02:32:06;11.30;;;7.17;;
6825;SDS011;3451;52.476;13.316;2022-09-24T02:34:35;8.50;;;7.33;;
6825;SDS011;3451;52.476;13.316;2022-09-24T02:37:04;10.17;;;7.90;;
6825;SDS011;3451;52.476;13.316;2022-09-24T02:39:30;10.03;;;7.27;;
6825;SDS011;3451;52.476;13.316;2022-09-24T02:41:57;9.00;;;7.40;;
6825;SDS011;3451;52.476;13.316;2022-09-24T02:44:23;9.73;;;7.70;;
6825;SDS011;3451;52.476;13.316;2022-09-24T02:46:49;11.37;;;7.57;;
6825;SDS011;3451;52.476;13.316;2022-09-24T02:49:16;8.87;;;7.20;;
6825;SDS011;3451;52.476;13.316;2022-09-24T02:51:42;11.40;;;7.23;;
6825;SDS011;3451;52.476;13.316;2022-09-24T02:54:09;11.30;;;7.50;;
6825;SDS011;3451;52.476;13.316;2022-09-24T02:56:35;11.53;;;7.73;;
6825;SDS011;3451;52.476;13.316;2022-09-24T02:59:02;14.83;;;7.60;;
6825;SDS011;3451;52.476;13.316;2022-09-24T03:01:29;9.47;;;7.67;;
6825;SDS011;3451;52.476;13.316;2022-09-24T03:03:56;9.63;;;7.77;;
6825;SDS011;3451;52.476;13.316;2022-09-24T03:06:23;10.33;;;7.73;;
6825;SDS011;3451;52.476;13.316;2022-09-24T03:08:52;9.47;;;7.53;;
6825;SDS011;3451;52.476;13.316;2022-09-24T03:11:21;9.80;;;7.77;;
6825;SDS011;3451;52.476;13.316;2022-09-24T03:13:48;8.23;;;7.30;;
6825;SDS011;3451;52.476;13.316;2022-09-24T03:16:15;10.10;;;7.80;;
6825;SDS011;3451;52.476;13.316;2022-09-24T03:18:42;11.53;;;7.97;;
6825;SDS011;3451;52.476;13.316;2022-09-24T03:21:09;10.23;;;7.90;;
6825;SDS011;3451;52.476;13.316;2022-09-24T03:23:36;12.17;;;8.17;;
6825;SDS011;3451;52.476;13.316;2022-09-24T03:26:03;9.80;;;8.47;;
6825;SDS011;3451;52.476;13.316;2022-09-24T03:28:29;9.57;;;7.90;;
6825;SDS011;3451;52.476;13.316;2022-09-24T03:30:55;11.63;;;7.97;;
6825;SDS011;3451;52.476;13.316;2022-09-24T03:33:28;12.10;;;8.23;;
6825;SDS011;3451;52.476;13.316;2022-09-24T03:36:14;9.87;;;8.27;;
6825;SDS011;3451;52.476;13.316;2022-09-24T03:38:42;9.23;;;7.97;;
6825;SDS011;3451;52.476;13.316;2022-09-24T03:41:08;10.23;;;8.27;;
6825;SDS011;3451;52.476;13.316;2022-09-24T03:43:35;11.63;;;7.77;;
6825;SDS011;3451;52.476;13.316;2022-09-24T03:46:02;11.23;;;8.40;;
6825;SDS011;3451;52.476;13.316;2022-09-24T03:48:32;9.70;;;8.13;;
6825;SDS011;3451;52.476;13.316;2022-09-24T03:51:05;9.57;;;8.17;;
6825;SDS011;3451;52.476;13.316;2022-09-24T03:53:32;10.30;;;8.20;;
6825;SDS011;3451;52.476;13.316;2022-09-24T03:55:58;9.43;;;7.70;;
6825;SDS011;3451;52.476;13.316;2022-09-24T03:58:27;8.70;;;7.77;;
6825;SDS011;3451;52.476;13.316;2022-09-24T04:00:54;10.70;;;7.93;;
6825;SDS011;3451;52.476;13.316;2022-09-24T04:03:21;8.97;;;7.53;;
6825;SDS011;3451;52.476;13.316;2022-09-24T04:05:47;12.80;;;8.10;;
6825;SDS011;3451;52.476;13.316;2022-09-24T04:08:16;9.17;;;7.73;;
6825;SDS011;3451;52.476;13.316;2022-09-24T04:10:44;8.77;;;7.40;;
6825;SDS011;3451;52.476;13.316;2022-09-24T04:13:11;10.37;;;8.53;;
6825;SDS011;3451;52.476;13.316;2022-09-24T04:15:38;9.80;;;7.40;;
6825;SDS011;3451;52.476;13.316;2022-09-24T04:18:04;10.80;;;7.90;;
6825;SDS011;3451;52.476;13.316;2022-09-24T04:20:30;10.97;;;7.10;;
6825;SDS011;3451;52.476;13.316;2022-09-24T04:22:58;8.80;;;7.23;;
6825;SDS011;3451;52.476;13.316;2022-09-24T04:25:25;11.97;;;8.00;;
6825;SDS011;3451;52.476;13.316;2022-09-24T04:27:53;13.17;;;8.23;;
6825;SDS011;3451;52.476;13.316;2022-09-24T04:30:19;10.23;;;7.63;;
6825;SDS011;3451;52.476;13.316;2022-09-24T04:32:46;9.10;;;7.20;;
6825;SDS011;3451;52.476;13.316;2022-09-24T04:35:12;9.00;;;7.47;;
6825;SDS011;3451;52.476;13.316;2022-09-24T04:37:38;8.73;;;7.40;;
6825;SDS011;3451;52.476;13.316;2022-09-24T04:40:05;10.73;;;7.60;;
6825;SDS011;3451;52.476;13.316;2022-09-24T04:42:38;12.83;;;7.70;;
6825;SDS011;3451;52.476;13.316;2022-09-24T04:45:08;9.03;;;7.87;;
6825;SDS011;3451;52.476;13.316;2022-09-24T04:47:35;8.20;;;7.17;;
6825;SDS011;3451;52.476;13.316;2022-09-24T04:50:02;10.40;;;7.60;;
6825;SDS011;3451;52.476;13.316;2022-09-24T04:52:29;9.67;;;7.37;;
6825;SDS011;3451;52.476;13.316;2022-09-24T04:54:58;11.30;;;7.80;;
6825;SDS011;3451;52.476;13.316;2022-09-24T04:57:25;9.87;;;7.63;;
6825;SDS011;3451;52.476;13.316;2022-09-24T04:59:51;8.90;;;7.90;;
6825;SDS011;3451;52.476;13.316;2022-09-24T05:02:17;11.27;;;8.20;;
6825;SDS011;3451;52.476;13.316;2022-09-24T05:04:44;8.80;;;7.90;;
6825;SDS011;3451;52.476;13.316;2022-09-24T05:07:10;10.47;;;7.47;;
6825;SDS011;3451;52.476;13.316;2022-09-24T05:09:37;8.13;;;7.23;;
6825;SDS011;3451;52.476;13.316;2022-09-24T05:12:03;8.57;;;7.57;;
6825;SDS011;3451;52.476;13.316;2022-09-24T05:14:30;8.80;;;7.53;;
6825;SDS011;3451;52.476;13.316;2022-09-24T05:16:57;8.97;;;7.70;;
6825;SDS011;3451;52.476;13.316;2022-09-24T05:19:23;9.63;;;7.77;;
6825;SDS011;3451;52.476;13.316;2022-09-24T05:21:49;10.30;;;8.73;;
6825;SDS011;3451;52.476;13.316;2022-09-24T05:24:15;10.80;;;7.73;;
6825;SDS011;3451;52.476;13.316;2022-09-24T05:26:42;10.07;;;8.40;;
6825;SDS011;3451;52.476;13.316;2022-09-24T05:29:27;11.67;;;7.77;;
6825;SDS011;3451;52.476;13.316;2022-09-24T05:31:53;9.73;;;7.97;;
6825;SDS011;3451;52.476;13.316;2022-09-24T05:34:19;11.37;;;8.60;;
6825;SDS011;3451;52.476;13.316;2022-09-24T05:36:46;12.67;;;8.03;;
6825;SDS011;3451;52.476;13.316;2022-09-24T05:39:12;12.30;;;9.10;;
6825;SDS011;3451;52.476;13.316;2022-09-24T05:41:39;12.17;;;9.20;;
6825;SDS011;3451;52.476;13.316;2022-09-24T05:44:05;11.97;;;8.77;;
6825;SDS011;3451;52.476;13.316;2022-09-24T05:46:32;10.97;;;8.13;;
6825;SDS011;3451;52.476;13.316;2022-09-24T05:48:58;11.40;;;8.40;;
6825;SDS011;3451;52.476;13.316;2022-09-24T05:51:24;10.63;;;8.40;;
6825;SDS011;3451;52.476;13.316;2022-09-24T05:53:51;11.90;;;8.20;;
6825;SDS011;3451;52.476;13.316;2022-09-24T05:56:17;10.07;;;8.00;;
6825;SDS011;3451;52.476;13.316;2022-09-24T05:58:43;11.10;;;8.33;;
6825;SDS011;3451;52.476;13.316;2022-09-24T06:01:09;10.47;;;8.27;;
6825;SDS011;3451;52.476;13.316;2022-09-24T06:03:36;11.93;;;8.77;;
6825;SDS011;3451;52.476;13.316;2022-09-24T06:06:03;10.90;;;8.77;;
6825;SDS011;3451;52.476;13.316;2022-09-24T06:08:30;14.10;;;8.53;;
6825;SDS011;3451;52.476;13.316;2022-09-24T06:10:59;9.67;;;8.13;;
6825;SDS011;3451;52.476;13.316;2022-09-24T06:13:26;11.77;;;8.07;;
6825;SDS011;3451;52.476;13.316;2022-09-24T06:15:52;9.63;;;8.03;;
6825;SDS011;3451;52.476;13.316;2022-09-24T06:18:24;9.40;;;8.10;;
6825;SDS011;3451;52.476;13.316;2022-09-24T06:20:50;13.83;;;8.40;;
6825;SDS011;3451;52.476;13.316;2022-09-24T06:23:17;13.23;;;8.30;;
6825;SDS011;3451;52.476;13.316;2022-09-24T06:25:43;11.50;;;8.60;;
6825;SDS011;3451;52.476;13.316;2022-09-24T06:28:14;11.40;;;8.70;;
6825;SDS011;3451;52.476;13.316;2022-09-24T06:30:41;14.40;;;9.40;;
6825;SDS011;3451;52.476;13.316;2022-09-24T06:33:09;11.23;;;8.57;;
6825;SDS011;3451;52.476;13.316;2022-09-24T06:35:36;11.30;;;8.47;;
6825;SDS011;3451;52.476;13.316;2022-09-24T06:38:03;8.90;;;7.97;;
6825;SDS011;3451;52.476;13.316;2022-09-24T06:40:29;10.60;;;8.17;;
6825;SDS011;3451;52.476;13.316;2022-09-24T06:43:01;14.30;;;8.47;;
6825;SDS011;3451;52.476;13.316;2022-09-24T06:45:28;10.90;;;7.80;;
6825;SDS011;3451;52.476;13.316;2022-09-24T06:47:56;11.83;;;8.50;;
6825;SDS011;3451;52.476;13.316;2022-09-24T06:50:23;12.37;;;8.80;;
6825;SDS011;3451;52.476;13.316;2022-09-24T06:52:50;12.57;;;7.83;;
6825;SDS011;3451;52.476;13.316;2022-09-24T06:55:17;15.13;;;8.17;;
6825;SDS011;3451;52.476;13.316;2022-09-24T06:57:43;10.80;;;7.90;;
6825;SDS011;3451;52.476;13.316;2022-09-24T07:00:11;12.43;;;8.10;;
6825;SDS011;3451;52.476;13.316;2022-09-24T07:02:38;14.03;;;8.63;;
6825;SDS011;3451;52.476;13.316;2022-09-24T07:05:05;11.20;;;8.10;;
6825;SDS011;3451;52.476;13.316;2022-09-24T07:07:31;9.50;;;8.17;;
6825;SDS011;3451;52.476;13.316;2022-09-24T07:09:59;9.93;;;8.57;;
6825;SDS011;3451;52.476;13.316;2022-09-24T07:12:30;10.73;;;7.87;;
6825;SDS011;3451;52.476;13.316;2022-09-24T07:14:56;12.60;;;8.03;;
6825;SDS011;3451;52.476;13.316;2022-09-24T07:17:23;11.40;;;8.13;;
6825;SDS011;3451;52.476;13.316;2022-09-24T07:19:51;12.27;;;8.60;;
6825;SDS011;3451;52.476;13.316;2022-09-24T07:22:18;11.57;;;8.10;;
6825;SDS011;3451;52.476;13.316;2022-09-24T07:24:45;10.90;;;8.13;;
6825;SDS011;3451;52.476;13.316;2022-09-24T07:27:11;10.43;;;7.70;;
6825;SDS011;3451;52.476;13.316;2022-09-24T07:29:38;10.70;;;8.50;;
6825;SDS011;3451;52.476;13.316;2022-09-24T07:32:04;11.57;;;8.57;;
6825;SDS011;3451;52.476;13.316;2022-09-24T07:34:31;12.43;;;8.67;;
6825;SDS011;3451;52.476;13.316;2022-09-24T07:36:57;9.43;;;8.17;;
6825;SDS011;3451;52.476;13.316;2022-09-24T07:39:23;11.03;;;8.83;;
6825;SDS011;3451;52.476;13.316;2022-09-24T07:41:50;11.77;;;8.90;;
6825;SDS011;3451;52.476;13.316;2022-09-24T07:44:20;11.10;;;8.67;;
6825;SDS011;3451;52.476;13.316;2022-09-24T07:46:49;13.43;;;7.90;;
6825;SDS011;3451;52.476;13.316;2022-09-24T07:49:15;10.40;;;8.33;;
6825;SDS011;3451;52.476;13.316;2022-09-24T07:51:42;9.37;;;8.00;;
6825;SDS011;3451;52.476;13.316;2022-09-24T07:54:08;10.07;;;8.53;;
6825;SDS011;3451;52.476;13.316;2022-09-24T07:56:42;13.43;;;8.63;;
6825;SDS011;3451;52.476;13.316;2022-09-24T07:59:09;10.40;;;8.20;;
6825;SDS011;3451;52.476;13.316;2022-09-24T08:01:36;9.73;;;7.73;;
6825;SDS011;3451;52.476;13.316;2022-09-24T08:04:02;11.80;;;8.30;;
6825;SDS011;3451;52.476;13.316;2022-09-24T08:06:30;10.80;;;8.33;;
6825;SDS011;3451;52.476;13.316;2022-09-24T08:09:04;12.60;;;8.30;;
6825;SDS011;3451;52.476;13.316;2022-09-24T08:11:31;13.87;;;7.97;;
6825;SDS011;3451;52.476;13.316;2022-09-24T08:13:58;11.93;;;8.00;;
